Time;durP1;ratioP1;P1;durP2;ratioP2;P2;SDS_P1;SDS_P2;PMS_P1;PMS_P2;Temp;Humidity;BMP_temperature;BMP_pressure;BME280_temperature;BME280_humidity;BME280_pressure;Samples;Min_cycle;Max_cycle;Signal;HPM_P1;HPM_P2
2021/04/02 00:02:09;;;;;;;30.90;20.75;;;;;;;12.74;53.80;96663.38;5096031;28;20039;-77
2021/04/02 00:04:36;;;;;;;26.35;20.52;;;;;;;12.74;53.54;96656.28;5095588;28;20460;-77
2021/04/02 00:07:08;;;;;;;28.58;21.33;;;;;;;12.76;53.80;96662.13;5095702;28;20047;-77
2021/04/02 00:09:35;;;;;;;28.50;22.10;;;;;;;12.77;53.74;96661.09;5081627;28;20032;-78
2021/04/02 00:12:01;;;;;;;26.80;20.30;;;;;;;12.77;53.93;96666.38;5095866;28;20049;-78
2021/04/02 00:14:28;;;;;;;27.13;20.83;;;;;;;12.72;53.90;96665.44;5094928;28;20055;-78
2021/04/02 00:16:55;;;;;;;28.63;19.27;;;;;;;12.68;53.86;96665.09;5076848;28;20052;-78
2021/04/02 00:19:21;;;;;;;26.15;20.48;;;;;;;12.66;53.94;96664.53;5094984;28;20063;-78
2021/04/02 00:21:47;;;;;;;26.08;19.73;;;;;;;12.62;54.19;96666.00;5095561;28;20063;-78
2021/04/02 00:24:13;;;;;;;27.02;20.45;;;;;;;12.61;54.09;96658.31;5077770;28;20040;-77
2021/04/02 00:26:40;;;;;;;28.17;20.52;;;;;;;12.56;54.10;96664.25;5095380;28;20043;-77
2021/04/02 00:29:07;;;;;;;24.52;19.35;;;;;;;12.49;54.27;96666.16;5077401;28;20487;-78
2021/04/02 00:31:33;;;;;;;28.08;20.05;;;;;;;12.39;54.24;96659.63;5095220;28;20040;-77
2021/04/02 00:34:00;;;;;;;29.88;21.42;;;;;;;12.33;54.41;96659.72;5084760;28;20499;-77
2021/04/02 00:36:29;;;;;;;29.45;20.52;;;;;;;12.24;54.42;96653.16;5094814;28;20039;-77
2021/04/02 00:38:55;;;;;;;25.55;21.88;;;;;;;12.17;54.49;96650.63;5095494;28;20043;-77
2021/04/02 00:41:21;;;;;;;29.25;22.17;;;;;;;12.15;54.78;96655.31;5076876;28;20484;-77
2021/04/02 00:43:50;;;;;;;29.35;21.80;;;;;;;12.11;54.99;96654.94;5095130;28;20041;-77
2021/04/02 00:46:19;;;;;;;33.80;23.58;;;;;;;12.09;55.04;96650.94;5093889;28;20046;-77
2021/04/02 00:48:47;;;;;;;33.00;24.00;;;;;;;12.02;54.89;96643.13;5095453;28;20452;-78
2021/04/02 00:51:21;;;;;;;32.95;24.30;;;;;;;11.97;55.67;96641.19;5094756;28;20040;-77
2021/04/02 00:53:47;;;;;;;32.08;23.30;;;;;;;11.94;55.45;96640.81;5095013;28;20032;-77
2021/04/02 00:56:14;;;;;;;31.30;23.38;;;;;;;11.90;55.70;96637.03;5094775;28;20047;-77
2021/04/02 00:58:41;;;;;;;33.42;24.52;;;;;;;11.88;55.65;96634.59;5094785;28;20473;-78
2021/04/02 01:01:08;;;;;;;33.00;24.52;;;;;;;11.87;55.96;96634.81;5094602;28;20040;-78
2021/04/02 01:03:36;;;;;;;30.67;23.27;;;;;;;11.87;56.01;96637.44;5094707;28;20032;-77
2021/04/02 01:06:05;;;;;;;30.80;24.02;;;;;;;11.85;56.32;96634.22;5094770;28;20032;-77
2021/04/02 01:08:35;;;;;;;30.52;23.65;;;;;;;11.82;56.28;96638.09;5094871;28;20039;-78
2021/04/02 01:11:04;;;;;;;31.90;23.75;;;;;;;11.82;56.32;96632.03;5094169;28;20044;-78
2021/04/02 01:13:40;;;;;;;30.83;22.08;;;;;;;11.80;56.56;96629.66;5094798;28;20035;-77
2021/04/02 01:16:11;;;;;;;31.40;23.95;;;;;;;11.74;56.84;96628.69;5083338;28;20059;-77
2021/04/02 01:18:47;;;;;;;32.97;24.35;;;;;;;11.71;57.00;96636.22;5094406;28;20047;-78
2021/04/02 01:21:22;;;;;;;35.53;25.75;;;;;;;11.64;56.52;96633.66;5094607;28;20043;-77
2021/04/02 01:23:56;;;;;;;35.25;25.10;;;;;;;11.56;57.29;96631.31;5064762;28;20036;-78
2021/04/02 01:26:47;;;;;;;34.15;25.85;;;;;;;11.46;58.42;96628.41;5094384;28;20036;-78
2021/04/02 01:29:23;;;;;;;33.95;25.13;;;;;;;11.38;58.52;96629.47;5094245;28;20036;-78
2021/04/02 01:31:53;;;;;;;31.63;25.63;;;;;;;11.35;57.86;96629.94;5094358;28;20408;-78
2021/04/02 01:34:22;;;;;;;37.80;24.92;;;;;;;11.33;57.89;96631.97;5093820;28;20032;-78
2021/04/02 01:36:52;;;;;;;36.53;25.08;;;;;;;11.33;58.22;96629.34;5094576;28;20035;-78
2021/04/02 01:39:19;;;;;;;33.88;25.52;;;;;;;11.32;58.10;96620.69;5094029;28;20055;-78
2021/04/02 01:41:49;;;;;;;40.33;26.23;;;;;;;11.30;58.19;96621.91;5093518;28;20479;-78
2021/04/02 01:44:17;;;;;;;30.85;25.10;;;;;;;11.26;58.32;96626.00;5093981;28;20400;-78
2021/04/02 01:46:45;;;;;;;35.05;24.20;;;;;;;11.18;58.36;96625.25;5093059;28;20048;-78
2021/04/02 01:49:11;;;;;;;33.05;24.60;;;;;;;11.15;58.49;96630.94;5093677;28;20047;-78
2021/04/02 01:51:40;;;;;;;30.55;23.95;;;;;;;11.12;58.65;96628.72;5093977;28;20035;-78
2021/04/02 01:54:07;;;;;;;33.13;24.60;;;;;;;11.12;58.71;96628.72;5075632;28;20036;-78
2021/04/02 01:56:34;;;;;;;34.25;24.70;;;;;;;11.10;58.77;96625.53;5093783;28;20032;-78
2021/04/02 01:59:02;;;;;;;31.05;24.25;;;;;;;11.09;58.80;96623.13;5093345;28;20047;-78
2021/04/02 02:01:37;;;;;;;32.78;24.85;;;;;;;11.04;59.13;96628.22;5093423;28;20052;-78
2021/04/02 02:04:04;;;;;;;37.70;24.25;;;;;;;10.95;58.74;96622.44;5094390;28;20036;-78
2021/04/02 02:06:32;;;;;;;31.95;25.10;;;;;;;10.85;58.93;96620.28;5093523;28;20114;-78
2021/04/02 02:09:00;;;;;;;33.20;24.88;;;;;;;10.72;59.15;96623.84;5093622;28;20047;-78
2021/04/02 02:11:28;;;;;;;35.50;25.55;;;;;;;10.63;59.29;96625.13;5093548;28;20383;-78
2021/04/02 02:13:56;;;;;;;34.25;23.95;;;;;;;10.58;59.59;96627.56;5093363;28;20039;-78
2021/04/02 02:16:24;;;;;;;35.83;26.73;;;;;;;10.55;59.91;96625.38;5093653;28;20396;-78
2021/04/02 02:18:57;;;;;;;32.30;26.67;;;;;;;10.50;60.15;96620.78;5093336;28;20514;-78
2021/04/02 02:21:23;;;;;;;33.95;26.42;;;;;;;10.46;60.31;96618.81;5075510;28;20044;-78
2021/04/02 02:23:50;;;;;;;35.08;27.15;;;;;;;10.44;60.34;96628.69;5093152;28;20106;-78
2021/04/02 02:26:18;;;;;;;37.85;27.70;;;;;;;10.44;60.82;96628.69;5093505;28;20035;-78
2021/04/02 02:28:45;;;;;;;32.40;26.05;;;;;;;10.42;60.91;96625.50;5093403;28;20036;-78
2021/04/02 02:31:12;;;;;;;36.90;25.95;;;;;;;10.39;60.87;96620.66;5093336;28;20051;-78
2021/04/02 02:33:40;;;;;;;33.08;25.73;;;;;;;10.32;61.23;96626.75;5093189;28;20039;-78
2021/04/02 02:36:06;;;;;;;32.95;25.25;;;;;;;10.26;61.25;96627.56;5092285;28;20415;-78
2021/04/02 02:38:33;;;;;;;33.25;27.05;;;;;;;10.21;61.56;96621.34;5092006;28;20036;-78
2021/04/02 02:41:00;;;;;;;34.53;25.50;;;;;;;10.16;61.59;96627.19;5092975;28;20039;-78
2021/04/02 02:43:26;;;;;;;33.42;25.92;;;;;;;10.11;61.71;96627.03;5075193;28;20036;-78
2021/04/02 02:45:52;;;;;;;33.55;24.98;;;;;;;10.04;62.01;96627.09;5092116;28;20059;-78
2021/04/02 02:48:19;;;;;;;31.45;24.52;;;;;;;10.01;62.43;96624.06;5093162;28;20040;-77
2021/04/02 02:50:49;;;;;;;30.20;24.90;;;;;;;9.99;62.37;96633.97;5093106;28;20051;-78
2021/04/02 02:53:19;;;;;;;32.88;25.25;;;;;;;9.92;62.84;96624.31;5092152;28;20040;-78
2021/04/02 02:55:47;;;;;;;28.60;23.20;;;;;;;9.90;62.77;96621.09;5093083;28;20047;-78
2021/04/02 02:58:17;;;;;;;33.20;23.83;;;;;;;9.84;63.13;96627.16;5093281;28;20461;-78
2021/04/02 03:00:44;;;;;;;31.25;22.15;;;;;;;9.80;63.05;96628.59;5075024;28;20040;-78
2021/04/02 03:03:15;;;;;;;30.13;21.63;;;;;;;9.72;63.48;96624.41;5093210;28;20051;-78
2021/04/02 03:05:50;;;;;;;32.75;21.65;;;;;;;9.68;64.12;96617.97;5093177;28;20043;-78
2021/04/02 03:08:19;;;;;;;26.45;20.80;;;;;;;9.64;63.93;96614.16;5093354;28;20043;-77
2021/04/02 03:10:47;;;;;;;29.10;20.20;;;;;;;9.61;63.79;96606.72;5095147;28;20043;-78
2021/04/02 03:13:16;;;;;;;29.38;20.58;;;;;;;9.54;64.15;96603.31;5096679;28;20028;-78
2021/04/02 03:15:44;;;;;;;24.02;19.65;;;;;;;9.50;63.85;96608.16;5095782;28;20479;-77
2021/04/02 03:18:14;;;;;;;26.33;19.42;;;;;;;9.48;64.15;96604.16;5096858;28;20059;-77
2021/04/02 03:20:40;;;;;;;24.48;19.17;;;;;;;9.46;64.15;96612.22;5096562;28;20040;-77
2021/04/02 03:23:10;;;;;;;23.95;18.25;;;;;;;9.41;64.25;96604.19;5096721;28;20036;-77
2021/04/02 03:25:38;;;;;;;23.05;17.92;;;;;;;9.32;64.51;96602.78;5096455;28;20032;-77
2021/04/02 03:28:06;;;;;;;25.00;17.20;;;;;;;9.29;64.56;96611.06;5096479;28;20040;-77
2021/04/02 03:30:32;;;;;;;23.40;17.33;;;;;;;9.27;64.68;96608.63;5096477;28;20399;-77
2021/04/02 03:33:09;;;;;;;24.23;17.17;;;;;;;9.25;65.33;96602.00;5095689;28;20408;-77
2021/04/02 03:35:36;;;;;;;21.35;16.80;;;;;;;9.24;64.85;96600.38;5085265;28;20044;-77
2021/04/02 03:38:03;;;;;;;23.10;17.40;;;;;;;9.22;64.82;96610.25;5096340;28;20051;-77
2021/04/02 03:40:31;;;;;;;23.20;17.73;;;;;;;9.20;64.98;96607.03;5096665;28;20042;-77
2021/04/02 03:42:59;;;;;;;26.52;17.98;;;;;;;9.17;65.07;96610.06;5096248;28;20036;-78
2021/04/02 03:45:29;;;;;;;25.13;18.08;;;;;;;9.12;65.06;96598.41;5095616;28;20059;-78
2021/04/02 03:47:56;;;;;;;23.35;18.08;;;;;;;9.12;65.26;96608.06;5096062;28;20032;-78
2021/04/02 03:50:27;;;;;;;23.70;19.25;;;;;;;9.09;65.75;96600.63;5078141;28;20039;-77
2021/04/02 03:53:10;;;;;;;23.50;20.10;;;;;;;9.07;66.31;96608.69;5095294;28;20047;-78
2021/04/02 03:55:41;;;;;;;29.55;19.95;;;;;;;9.04;66.35;96596.00;5095351;28;20068;-77
2021/04/02 03:58:10;;;;;;;27.83;20.98;;;;;;;9.00;66.16;96600.03;5095802;28;20372;-77
2021/04/02 04:01:11;;;;;;;22.65;19.85;;;;;;;8.92;67.89;96601.06;5095820;28;20032;-77
2021/04/02 04:03:40;;;;;;;23.60;18.48;;;;;;;8.82;66.55;96605.91;5096086;28;20039;-77
2021/04/02 04:06:08;;;;;;;25.58;20.73;;;;;;;8.78;66.37;96611.72;5095901;28;20040;-78
2021/04/02 04:08:36;;;;;;;26.50;19.88;;;;;;;8.72;66.50;96614.16;5095665;28;20039;-78
2021/04/02 04:11:03;;;;;;;27.38;19.33;;;;;;;8.70;66.76;96617.97;5095790;28;20032;-78
2021/04/02 04:13:34;;;;;;;23.05;17.75;;;;;;;8.64;66.82;96613.56;5095897;28;20040;-78
2021/04/02 04:16:02;;;;;;;26.70;18.60;;;;;;;8.59;66.91;96622.00;5095275;28;20047;-77
2021/04/02 04:18:32;;;;;;;23.23;17.73;;;;;;;8.55;67.18;96626.03;5094621;28;20051;-78
2021/04/02 04:21:01;;;;;;;22.27;17.23;;;;;;;8.47;67.10;96618.38;5095141;28;20044;-78
2021/04/02 04:23:28;;;;;;;18.98;15.38;;;;;;;8.41;67.09;96619.97;5095546;28;20039;-78
2021/04/02 04:25:56;;;;;;;19.75;14.48;;;;;;;8.38;67.33;96622.97;5095668;28;20047;-77
2021/04/02 04:28:25;;;;;;;16.23;13.93;;;;;;;8.31;67.24;96620.31;5095293;28;20059;-78
2021/04/02 04:30:54;;;;;;;18.38;13.55;;;;;;;8.27;67.15;96623.53;5095387;28;20404;-78
2021/04/02 04:33:24;;;;;;;19.58;14.05;;;;;;;8.23;67.50;96632.75;5094159;28;20047;-78
2021/04/02 04:35:52;;;;;;;19.15;13.93;;;;;;;8.19;67.40;96634.97;5096074;28;20028;-78
2021/04/02 04:38:19;;;;;;;20.13;14.95;;;;;;;8.17;67.45;96636.16;5095154;28;20051;-78
2021/04/02 04:40:47;;;;;;;18.42;13.80;;;;;;;8.11;67.63;96630.72;5094575;28;20407;-78
2021/04/02 04:43:14;;;;;;;20.13;13.68;;;;;;;8.11;67.64;96632.56;5094907;28;20036;-78
2021/04/02 04:45:40;;;;;;;15.73;12.88;;;;;;;8.08;67.63;96630.31;5094997;28;20036;-78
2021/04/02 04:48:07;;;;;;;15.38;13.18;;;;;;;8.03;67.55;96630.13;5094756;28;20036;-78
2021/04/02 04:50:34;;;;;;;18.45;13.02;;;;;;;8.01;67.71;96626.91;5094957;28;20043;-78
2021/04/02 04:53:07;;;;;;;15.88;12.80;;;;;;;8.00;68.03;96636.53;5095222;28;20036;-78
2021/04/02 04:55:37;;;;;;;16.65;13.00;;;;;;;7.98;67.86;96635.09;5094853;28;20039;-78
2021/04/02 04:58:05;;;;;;;19.80;13.15;;;;;;;8.00;67.82;96640.94;5094971;28;20039;-77
2021/04/02 05:00:32;;;;;;;16.33;12.00;;;;;;;8.01;67.79;96639.97;5094568;28;20027;-77
2021/04/02 05:03:01;;;;;;;18.42;13.15;;;;;;;7.99;67.75;96634.91;5093514;28;20055;-78
2021/04/02 05:05:33;;;;;;;16.88;12.18;;;;;;;7.98;67.84;96638.53;5094462;28;20483;-77
2021/04/02 05:08:02;;;;;;;17.77;12.00;;;;;;;7.97;67.58;96643.97;5094894;28;20376;-77
2021/04/02 05:10:33;;;;;;;16.02;12.40;;;;;;;7.97;67.48;96642.16;5094747;28;20487;-78
2021/04/02 05:13:01;;;;;;;15.48;10.63;;;;;;;7.99;67.58;96641.97;5094199;28;20039;-77
2021/04/02 05:15:28;;;;;;;14.35;11.68;;;;;;;7.95;67.46;96641.53;5094535;28;20055;-77
2021/04/02 05:17:55;;;;;;;17.45;10.77;;;;;;;7.95;67.54;96638.13;5094907;28;20059;-77
2021/04/02 05:20:42;;;;;;;14.93;10.75;;;;;;;7.99;67.38;96649.78;5094696;28;20413;-77
2021/04/02 05:23:10;;;;;;;14.48;9.63;;;;;;;8.03;67.30;96653.63;5094414;28;20063;-77
2021/04/02 05:25:36;;;;;;;13.88;10.48;;;;;;;8.06;67.28;96648.81;5076086;28;20416;-78
2021/04/02 05:28:05;;;;;;;12.95;9.85;;;;;;;8.10;67.08;96654.44;5094795;28;20039;-78
2021/04/02 05:30:32;;;;;;;11.52;10.32;;;;;;;8.10;67.04;96662.28;5094169;28;20495;-78
2021/04/02 05:32:59;;;;;;;10.90;8.88;;;;;;;8.05;66.89;96659.47;5093559;28;20475;-78
2021/04/02 05:35:25;;;;;;;14.85;9.70;;;;;;;8.13;66.83;96657.47;5094047;28;20058;-77
2021/04/02 05:37:51;;;;;;;12.55;8.70;;;;;;;8.30;66.84;96657.09;5094117;28;20036;-78
2021/04/02 05:40:19;;;;;;;11.55;9.10;;;;;;;8.52;66.54;96665.59;5093767;28;20044;-78
2021/04/02 05:43:13;;;;;;;10.75;8.50;;;;;;;8.64;65.01;96663.22;5094230;28;20407;-77
2021/04/02 05:45:40;;;;;;;10.88;8.85;;;;;;;8.77;65.77;96671.06;5085502;28;20047;-77
2021/04/02 05:48:09;;;;;;;14.75;8.52;;;;;;;8.98;65.39;96667.44;5093751;28;20043;-78
2021/04/02 05:50:37;;;;;;;9.18;8.23;;;;;;;9.22;64.99;96665.19;5093019;28;20044;-78
2021/04/02 05:53:06;;;;;;;11.60;7.18;;;;;;;9.44;64.14;96668.41;5094414;28;20039;-78
2021/04/02 05:55:34;;;;;;;9.63;6.57;;;;;;;9.65;63.87;96672.56;5092560;28;20051;-78
2021/04/02 05:58:02;;;;;;;7.00;5.80;;;;;;;9.86;63.30;96672.28;5093121;28;20480;-78
2021/04/02 06:00:29;;;;;;;7.93;6.40;;;;;;;10.08;62.68;96666.75;5092948;28;20400;-77
2021/04/02 06:02:57;;;;;;;7.45;5.95;;;;;;;10.33;61.87;96667.69;5075777;28;20024;-78
2021/04/02 06:05:24;;;;;;;6.18;5.18;;;;;;;10.54;61.28;96666.53;5093709;28;20028;-78
2021/04/02 06:08:03;;;;;;;6.75;4.85;;;;;;;10.76;60.57;96663.56;5093718;28;20032;-78
2021/04/02 06:10:30;;;;;;;5.97;5.05;;;;;;;10.95;60.02;96665.22;5093608;28;20369;-78
2021/04/02 06:12:57;;;;;;;8.85;6.18;;;;;;;11.20;59.45;96661.78;5093641;28;20048;-78
2021/04/02 06:15:24;;;;;;;6.32;5.35;;;;;;;11.34;58.57;96655.41;5093571;28;20052;-78
2021/04/02 06:18:11;;;;;;;6.32;4.60;;;;;;;11.60;55.22;96619.34;5075396;28;20040;-78
2021/04/02 06:20:45;;;;;;;5.72;5.03;;;;;;;11.99;54.58;96627.81;5077545;28;20036;-78
2021/04/02 06:23:33;;;;;;;4.30;3.83;;;;;;;12.32;53.58;96619.47;5093435;28;20388;-78
2021/04/02 06:26:02;;;;;;;4.15;3.45;;;;;;;12.35;54.63;96626.13;5093403;28;20036;-78
2021/04/02 06:28:31;;;;;;;4.18;3.10;;;;;;;12.33;53.43;96613.19;5074690;28;20044;-78
2021/04/02 06:31:03;;;;;;;2.70;2.47;;;;;;;12.35;49.56;96591.94;5093449;28;20036;-78
2021/04/02 06:33:50;;;;;;;5.60;3.03;;;;;;;12.32;48.91;96587.09;5093689;28;20044;-78
2021/04/02 06:36:20;;;;;;;4.25;2.85;;;;;;;12.34;51.45;96595.56;5093117;28;20032;-78
2021/04/02 06:38:48;;;;;;;4.95;2.90;;;;;;;12.41;50.81;96592.84;5093449;28;20028;-78
2021/04/02 06:41:16;;;;;;;3.30;2.88;;;;;;;12.41;50.42;96584.94;5093213;28;20043;-78
2021/04/02 06:43:45;;;;;;;4.90;2.72;;;;;;;12.51;49.58;96588.63;5093481;28;20461;-78
2021/04/02 06:46:26;;;;;;;4.88;2.80;;;;;;;12.58;44.72;96539.34;5096298;28;20106;-78
2021/04/02 06:48:54;;;;;;;2.63;2.30;;;;;;;12.68;48.21;96583.53;5079241;28;20024;-78
2021/04/02 06:51:23;;;;;;;3.65;2.50;;;;;;;12.69;47.33;96579.84;5079095;28;20039;-78
2021/04/02 06:53:55;;;;;;;4.47;2.83;;;;;;;12.90;47.31;96575.88;5097169;28;20036;-78
2021/04/02 06:56:24;;;;;;;3.10;2.42;;;;;;;13.09;46.53;96567.84;5097332;28;20036;-78
2021/04/02 06:58:52;;;;;;;4.03;2.60;;;;;;;13.16;45.95;96569.31;5097484;28;20039;-78
2021/04/02 07:01:22;;;;;;;3.58;2.70;;;;;;;13.15;45.00;96562.44;5097374;28;20069;-78
2021/04/02 07:03:49;;;;;;;4.20;2.70;;;;;;;13.18;45.05;96567.25;5096879;28;20392;-78
2021/04/02 07:06:17;;;;;;;4.05;3.00;;;;;;;13.19;44.60;96571.50;5097240;28;20032;-78
2021/04/02 07:08:44;;;;;;;3.75;3.00;;;;;;;13.26;44.48;96578.47;5096952;28;20028;-78
2021/04/02 07:11:11;;;;;;;4.10;3.28;;;;;;;13.35;44.14;96577.09;5096917;28;20036;-78
2021/04/02 07:13:55;;;;;;;4.20;2.88;;;;;;;13.35;42.38;96585.81;5096656;28;20047;-78
2021/04/02 07:16:23;;;;;;;3.17;2.95;;;;;;;13.42;43.28;96624.38;5078915;28;20048;-78
2021/04/02 07:18:49;;;;;;;3.58;2.72;;;;;;;13.40;43.05;96628.06;5097257;28;20050;-79
2021/04/02 07:21:17;;;;;;;3.83;2.78;;;;;;;13.29;42.67;96625.44;5096833;28;20043;-78
2021/04/02 07:23:43;;;;;;;4.03;2.78;;;;;;;13.17;42.78;96628.84;5096678;28;20055;-78
2021/04/02 07:26:11;;;;;;;4.78;2.50;;;;;;;12.75;42.72;96630.78;5096660;28;20044;-78
2021/04/02 07:28:43;;;;;;;4.25;2.42;;;;;;;12.46;42.98;96640.34;5096622;28;20483;-78
2021/04/02 07:31:10;;;;;;;5.35;3.25;;;;;;;12.22;43.28;96639.44;5097030;28;20036;-79
2021/04/02 07:33:41;;;;;;;2.63;2.38;;;;;;;12.02;43.54;96647.59;5096279;28;20035;-79
2021/04/02 07:36:10;;;;;;;3.80;2.80;;;;;;;11.75;43.90;96653.94;5096465;28;20391;-79
2021/04/02 07:38:37;;;;;;;4.07;2.90;;;;;;;11.51;44.01;96650.38;5096366;28;20044;-78
2021/04/02 07:41:09;;;;;;;6.05;3.03;;;;;;;11.25;44.72;96656.69;5096894;28;20420;-78
2021/04/02 07:43:56;;;;;;;3.60;2.92;;;;;;;10.97;45.37;96651.91;5096346;28;20511;-79
2021/04/02 07:46:28;;;;;;;4.47;2.88;;;;;;;10.80;45.66;96653.47;5085426;28;20519;-78
2021/04/02 07:49:09;;;;;;;3.28;2.97;;;;;;;10.68;46.59;96664.63;5096081;28;20032;-78
2021/04/02 07:51:49;;;;;;;5.95;3.13;;;;;;;10.64;47.24;96673.13;5095978;28;20036;-79
2021/04/02 07:54:22;;;;;;;6.32;3.40;;;;;;;10.68;46.67;96669.88;5096338;28;20039;-78
2021/04/02 07:56:55;;;;;;;4.63;3.17;;;;;;;10.74;46.35;96669.00;5095457;28;20050;-79
2021/04/02 07:59:42;;;;;;;7.07;3.63;;;;;;;10.68;46.77;96671.69;5095964;28;20040;-79
2021/04/02 08:02:10;;;;;;;5.03;3.40;;;;;;;10.57;46.52;96668.72;5096018;28;20028;-78
2021/04/02 08:04:43;;;;;;;5.22;3.65;;;;;;;10.60;46.79;96671.94;5095996;28;20032;-78
2021/04/02 08:07:14;;;;;;;4.03;3.50;;;;;;;10.60;47.16;96680.59;5095862;28;20380;-78
2021/04/02 08:09:48;;;;;;;4.00;3.60;;;;;;;10.73;47.51;96674.47;5095930;28;20043;-79
2021/04/02 08:12:16;;;;;;;3.45;3.05;;;;;;;10.84;47.00;96678.25;5095809;28;20040;-79
2021/04/02 08:14:48;;;;;;;5.78;3.53;;;;;;;10.97;47.11;96673.69;5095413;28;20059;-79
2021/04/02 08:17:19;;;;;;;3.90;3.50;;;;;;;11.18;47.04;96675.13;5095973;28;20052;-78
2021/04/02 08:19:46;;;;;;;6.97;4.80;;;;;;;11.81;46.53;96672.50;5096030;28;20499;-78
2021/04/02 08:22:16;;;;;;;4.45;3.92;;;;;;;12.49;45.50;96666.16;5095593;28;20036;-78
2021/04/02 08:24:44;;;;;;;5.43;4.10;;;;;;;13.11;45.16;96658.72;5077477;28;20404;-78
2021/04/02 08:27:12;;;;;;;5.20;4.00;;;;;;;13.51;44.31;96660.69;5077837;28;20388;-78
2021/04/02 08:29:41;;;;;;;8.00;4.20;;;;;;;13.79;43.16;96648.63;5094532;28;20392;-79
2021/04/02 08:32:10;;;;;;;4.47;4.07;;;;;;;14.02;42.71;96648.53;5095688;28;20047;-78
2021/04/02 08:34:38;;;;;;;4.95;3.88;;;;;;;14.24;42.53;96647.09;5095233;28;20457;-79
2021/04/02 08:37:11;;;;;;;6.57;3.88;;;;;;;14.30;41.70;96648.78;5095328;28;20039;-78
2021/04/02 08:39:38;;;;;;;4.65;4.25;;;;;;;14.37;41.80;96646.81;5095547;28;20039;-78
2021/04/02 08:42:07;;;;;;;6.22;4.75;;;;;;;14.38;41.55;96643.13;5095165;28;20036;-78
2021/04/02 08:44:35;;;;;;;5.35;4.57;;;;;;;14.43;41.04;96639.81;5095141;28;20036;-78
2021/04/02 08:47:09;;;;;;;5.10;3.85;;;;;;;14.58;40.21;96632.16;5095339;28;20036;-78
2021/04/02 08:49:52;;;;;;;4.65;4.25;;;;;;;14.71;40.51;96636.34;5094953;28;20031;-78
2021/04/02 08:52:23;;;;;;;5.03;4.53;;;;;;;14.69;40.44;96641.06;5095213;28;20392;-78
2021/04/02 08:54:58;;;;;;;5.05;4.65;;;;;;;14.44;40.28;96644.81;5094975;28;20388;-79
2021/04/02 08:57:26;;;;;;;5.47;4.68;;;;;;;14.41;40.54;96638.19;5094803;28;20039;-78
2021/04/02 08:59:53;;;;;;;4.43;4.03;;;;;;;14.51;40.63;96634.94;5095026;28;20040;-78
2021/04/02 09:02:21;;;;;;;5.65;4.88;;;;;;;14.32;40.22;96638.78;5093944;28;20067;-78
2021/04/02 09:04:48;;;;;;;4.50;4.18;;;;;;;14.31;40.48;96650.41;5094840;28;20407;-78
2021/04/02 09:07:15;;;;;;;4.95;4.18;;;;;;;14.35;40.53;96641.78;5093569;28;20043;-77
2021/04/02 09:09:45;;;;;;;5.35;4.10;;;;;;;14.28;40.49;96641.13;5093649;28;20044;-77
2021/04/02 09:12:16;;;;;;;4.78;4.30;;;;;;;14.40;40.22;96647.16;5094381;28;20040;-78
2021/04/02 09:14:48;;;;;;;4.47;4.07;;;;;;;14.36;40.35;96632.00;5076234;28;20476;-78
2021/04/02 09:17:20;;;;;;;4.60;4.20;;;;;;;14.35;40.18;96631.22;5093786;28;20051;-78
2021/04/02 09:19:46;;;;;;;5.70;4.75;;;;;;;14.35;40.28;96631.22;5094592;28;20377;-78
2021/04/02 09:22:13;;;;;;;4.32;4.03;;;;;;;14.33;40.36;96630.66;5094346;28;20047;-78
2021/04/02 09:24:41;;;;;;;4.72;4.30;;;;;;;14.34;40.43;96642.00;5093689;28;20404;-78
2021/04/02 09:27:19;;;;;;;5.30;4.80;;;;;;;14.06;40.64;96640.19;5093289;28;20399;-78
2021/04/02 09:29:56;;;;;;;5.95;4.57;;;;;;;14.04;40.86;96647.53;5094348;28;20032;-78
2021/04/02 09:32:26;;;;;;;4.93;4.35;;;;;;;14.11;40.79;96650.81;5093242;28;20056;-78
2021/04/02 09:34:52;;;;;;;4.45;4.05;;;;;;;14.13;40.86;96652.19;5094251;28;20464;-78
2021/04/02 09:37:19;;;;;;;4.80;4.40;;;;;;;14.17;40.67;96642.78;5094100;28;20047;-78
2021/04/02 09:39:45;;;;;;;5.53;4.95;;;;;;;14.08;40.49;96646.81;5093931;28;20051;-78
2021/04/02 09:42:15;;;;;;;6.32;4.35;;;;;;;13.89;40.83;96655.94;5094587;28;20032;-78
2021/04/02 09:44:46;;;;;;;5.35;4.38;;;;;;;13.93;40.77;96657.06;5093883;28;20040;-78
2021/04/02 09:47:14;;;;;;;5.38;4.28;;;;;;;14.05;40.98;96662.28;5094413;28;20036;-78
2021/04/02 09:49:42;;;;;;;6.20;4.78;;;;;;;14.09;40.82;96658.97;5092908;28;20047;-78
2021/04/02 09:52:10;;;;;;;5.78;4.40;;;;;;;14.12;41.02;96660.34;5093997;28;20508;-77
2021/04/02 09:54:37;;;;;;;4.97;4.45;;;;;;;14.18;40.91;96668.09;5093851;28;20043;-77
2021/04/02 09:57:06;;;;;;;5.95;5.07;;;;;;;14.16;40.80;96661.47;5093750;28;20032;-77
2021/04/02 09:59:33;;;;;;;5.45;4.93;;;;;;;13.92;40.94;96658.09;5094249;28;20028;-77
2021/04/02 10:02:00;;;;;;;5.60;4.50;;;;;;;13.91;41.00;96661.78;5093640;28;20032;-77
2021/04/02 10:04:26;;;;;;;6.15;4.93;;;;;;;13.80;40.95;96666.03;5093829;28;20036;-77
2021/04/02 10:06:53;;;;;;;6.07;5.15;;;;;;;13.71;41.14;96670.06;5092683;28;20063;-77
2021/04/02 10:09:20;;;;;;;6.78;5.03;;;;;;;13.53;41.15;96668.38;5093456;28;20487;-77
2021/04/02 10:11:48;;;;;;;5.38;4.97;;;;;;;13.44;41.51;96669.75;5094207;28;20028;-77
2021/04/02 10:14:15;;;;;;;6.82;6.22;;;;;;;13.35;41.67;96671.94;5093425;28;20048;-77
2021/04/02 10:16:45;;;;;;;6.15;5.30;;;;;;;13.38;41.78;96667.00;5075463;28;20075;-77
2021/04/02 10:19:13;;;;;;;6.68;6.07;;;;;;;13.54;41.86;96667.34;5092478;28;20047;-77
2021/04/02 10:21:39;;;;;;;6.03;5.53;;;;;;;13.67;41.73;96676.81;5093218;28;20032;-77
2021/04/02 10:24:07;;;;;;;6.18;5.57;;;;;;;13.70;41.58;96671.91;5093803;28;20039;-77
2021/04/02 10:26:34;;;;;;;7.75;5.65;;;;;;;13.59;41.65;96668.25;5093345;28;20035;-77
2021/04/02 10:29:04;;;;;;;6.35;5.75;;;;;;;13.67;41.82;96675.00;5074662;28;20048;-77
2021/04/02 10:31:31;;;;;;;6.72;6.07;;;;;;;13.80;41.90;96664.22;5093145;28;20044;-77
2021/04/02 10:33:57;;;;;;;6.57;5.97;;;;;;;13.96;41.72;96662.69;5092994;28;20510;-77
2021/04/02 10:36:26;;;;;;;6.53;5.75;;;;;;;14.10;41.44;96670.31;5092072;28;20421;-77
2021/04/02 10:38:53;;;;;;;6.18;5.57;;;;;;;14.19;41.47;96677.63;5093453;28;20040;-77
2021/04/02 10:41:21;;;;;;;6.18;5.63;;;;;;;14.34;41.30;96669.19;5092389;28;20055;-76
2021/04/02 10:43:48;;;;;;;5.50;5.10;;;;;;;14.41;40.94;96675.13;5092210;28;20044;-77
2021/04/02 10:46:14;;;;;;;6.13;5.63;;;;;;;14.52;40.98;96672.66;5093055;28;20040;-77
2021/04/02 10:48:40;;;;;;;6.25;5.75;;;;;;;14.57;40.80;96662.22;5075190;28;20047;-77
2021/04/02 10:51:07;;;;;;;6.88;4.90;;;;;;;14.65;40.59;96672.41;5093142;28;20047;-77
2021/04/02 10:53:33;;;;;;;6.55;5.88;;;;;;;14.69;40.56;96662.16;5092973;28;20043;-77
2021/04/02 10:56:03;;;;;;;5.28;4.88;;;;;;;14.73;40.29;96653.53;5093375;28;20040;-77
2021/04/02 10:58:30;;;;;;;6.10;5.50;;;;;;;14.63;40.21;96661.28;5093777;28;20058;-76
2021/04/02 11:00:57;;;;;;;6.03;5.53;;;;;;;14.56;40.30;96661.44;5075331;28;20024;-77
2021/04/02 11:03:23;;;;;;;5.82;5.32;;;;;;;14.47;40.35;96654.09;5092886;28;20047;-77
2021/04/02 11:05:49;;;;;;;7.85;5.70;;;;;;;14.48;40.32;96667.06;5092988;28;20040;-77
2021/04/02 11:08:16;;;;;;;5.53;5.03;;;;;;;14.63;40.27;96663.13;5092867;28;20467;-77
2021/04/02 11:10:42;;;;;;;5.43;4.93;;;;;;;14.92;40.21;96658.59;5092000;28;20055;-76
2021/04/02 11:13:09;;;;;;;5.82;5.32;;;;;;;15.18;39.72;96654.47;5093217;28;20028;-77
2021/04/02 11:15:35;;;;;;;6.10;5.50;;;;;;;15.27;39.45;96649.63;5091793;28;20036;-76
2021/04/02 11:18:02;;;;;;;5.78;5.38;;;;;;;15.20;39.07;96649.75;5092839;28;20476;-76
2021/04/02 11:20:28;;;;;;;5.13;4.72;;;;;;;15.18;39.26;96655.31;5092918;28;20044;-74
2021/04/02 11:22:56;;;;;;;7.00;4.85;;;;;;;15.38;39.74;96654.78;5093181;28;20106;-74
2021/04/02 11:25:22;;;;;;;4.50;4.20;;;;;;;15.75;39.56;96650.81;5082459;28;20494;-74
2021/04/02 11:27:49;;;;;;;4.47;4.07;;;;;;;16.11;39.34;96645.94;5092531;28;20051;-74
2021/04/02 11:30:17;;;;;;;4.90;4.32;;;;;;;16.30;38.81;96649.06;5091913;28;20484;-76
2021/04/02 11:32:44;;;;;;;5.25;4.85;;;;;;;16.32;38.19;96647.75;5086246;28;20036;-77
2021/04/02 11:35:11;;;;;;;5.53;5.13;;;;;;;16.17;37.99;96642.31;5096362;28;20044;-76
2021/04/02 11:37:38;;;;;;;5.65;5.05;;;;;;;16.06;37.81;96641.38;5078299;28;20054;-76